Time;durP1;ratioP1;P1;durP2;ratioP2;P2;SDS_P1;SDS_P2;PMS_P1;PMS_P2;Temp;Humidity;BMP_temperature;BMP_pressure;BME280_temperature;BME280_humidity;BME280_pressure;Samples;Min_cycle;Max_cycle;Signal;HPM_P1;HPM_P2
2022/07/01 00:02:11;;;;;;;17.65;7.88;;;;;;;27.56;62.37;99772.63;4955010;29;20452;-74
2022/07/01 00:04:45;;;;;;;15.90;8.27;;;;;;;27.57;62.52;99777.91;4954932;29;20481;-74
2022/07/01 00:07:15;;;;;;;18.40;7.93;;;;;;;27.44;63.12;99777.09;4954622;29;20466;-77
2022/07/01 00:09:44;;;;;;;17.23;8.23;;;;;;;27.36;63.43;99775.41;4954894;29;20047;-76
2022/07/01 00:12:12;;;;;;;15.82;8.07;;;;;;;27.33;63.62;99776.69;4954596;29;20047;-76
2022/07/01 00:14:42;;;;;;;15.10;7.40;;;;;;;27.31;63.75;99773.31;4954901;29;20079;-76
2022/07/01 00:17:10;;;;;;;15.55;8.02;;;;;;;27.28;64.05;99776.47;4954644;29;20051;-78
2022/07/01 00:19:38;;;;;;;18.27;8.18;;;;;;;27.27;64.01;99780.25;4954773;29;20098;-78
2022/07/01 00:22:07;;;;;;;15.80;8.90;;;;;;;27.24;64.44;99769.75;4954828;28;20054;-79
2022/07/01 00:24:36;;;;;;;14.10;8.35;;;;;;;27.15;65.13;99765.53;4957758;29;20050;-78
2022/07/01 00:27:04;;;;;;;16.90;8.18;;;;;;;27.10;65.44;99770.78;4958139;29;20118;-77
2022/07/01 00:29:33;;;;;;;17.63;8.23;;;;;;;27.08;65.60;99772.91;4957063;29;20142;-77
2022/07/01 00:32:04;;;;;;;12.23;7.93;;;;;;;27.02;66.26;99768.22;4957281;29;20409;-77
2022/07/01 00:34:32;;;;;;;16.27;8.95;;;;;;;27.03;65.71;99770.81;4957106;29;20055;-78
2022/07/01 00:37:00;;;;;;;18.85;9.10;;;;;;;26.98;66.19;99767.81;4957109;29;20048;-78
2022/07/01 00:39:31;;;;;;;14.27;9.00;;;;;;;26.96;66.45;99766.34;4957014;29;20103;-78
2022/07/01 00:42:00;;;;;;;16.90;9.07;;;;;;;26.92;67.33;99762.34;4957262;29;20051;-77
2022/07/01 00:44:29;;;;;;;18.92;9.23;;;;;;;26.89;67.09;99771.81;4956987;29;20039;-80
2022/07/01 00:47:01;;;;;;;14.57;8.85;;;;;;;26.88;67.55;99764.66;4956951;29;20493;-78
2022/07/01 00:49:31;;;;;;;14.47;9.40;;;;;;;26.86;69.19;99774.13;4956850;29;20112;-77
2022/07/01 00:51:59;;;;;;;18.15;9.15;;;;;;;26.81;67.82;99769.28;4956960;29;20075;-78
2022/07/01 00:54:29;;;;;;;16.77;9.18;;;;;;;26.79;68.51;99774.13;4956669;29;20047;-78
2022/07/01 00:56:57;;;;;;;16.50;9.50;;;;;;;26.73;68.73;99770.34;4956948;29;20436;-75
2022/07/01 00:59:25;;;;;;;16.33;9.45;;;;;;;26.69;69.16;99774.53;4956527;29;20046;-73
2022/07/01 01:01:53;;;;;;;16.63;9.57;;;;;;;26.65;69.05;99770.53;4956689;29;20126;-74
2022/07/01 01:04:21;;;;;;;13.85;9.43;;;;;;;26.66;69.75;99772.22;4956465;29;20062;-75
2022/07/01 01:06:51;;;;;;;13.02;8.95;;;;;;;26.66;69.71;99777.69;4956860;29;20070;-75
2022/07/01 01:09:20;;;;;;;14.73;9.25;;;;;;;26.63;69.79;99769.88;4956500;29;20134;-80
2022/07/01 01:11:48;;;;;;;13.25;9.25;;;;;;;26.63;70.14;99775.34;4956987;29;20401;-76
2022/07/01 01:14:16;;;;;;;13.30;9.15;;;;;;;26.62;70.57;99767.34;4956216;29;20497;-79
2022/07/01 01:16:44;;;;;;;16.13;8.88;;;;;;;26.57;71.24;99772.63;4956452;29;20126;-77
2022/07/01 01:19:12;;;;;;;15.00;8.70;;;;;;;26.54;70.63;99773.91;4956632;29;20049;-80
2022/07/01 01:21:42;;;;;;;17.60;8.65;;;;;;;26.50;70.99;99778.06;4956631;29;20053;-77
2022/07/01 01:24:10;;;;;;;14.10;8.73;;;;;;;26.48;71.70;99777.44;4956383;29;20381;-78
2022/07/01 01:26:39;;;;;;;15.30;8.60;;;;;;;26.46;71.69;99779.56;4918614;29;1090587;-76
2022/07/01 01:29:08;;;;;;;18.20;8.75;;;;;;;26.42;72.14;99783.72;4957682;29;20046;-76
2022/07/01 01:31:36;;;;;;;13.38;8.68;;;;;;;26.35;73.27;99788.31;4957280;29;20121;-76
2022/07/01 01:34:05;;;;;;;16.90;8.75;;;;;;;26.31;73.40;99792.50;4957230;28;20054;-77
2022/07/01 01:36:33;;;;;;;15.48;8.90;;;;;;;26.31;73.46;99784.28;4957135;29;20445;-76
2022/07/01 01:39:06;;;;;;;15.77;9.07;;;;;;;26.30;75.35;99790.81;4939932;29;20479;-76
2022/07/01 01:41:34;;;;;;;;;;;;;;;26.27;73.99;99783.03;4957583;29;20133;-77
2022/07/01 01:44:02;;;;;;;15.13;9.05;;;;;;;26.27;74.09;99785.78;4957251;29;19927;-76
2022/07/01 01:46:30;;;;;;;16.67;9.40;;;;;;;26.23;74.47;99783.44;4939698;29;20568;-77
2022/07/01 01:49:00;;;;;;;16.35;8.73;;;;;;;26.21;74.70;99787.41;4957294;29;20047;-77
2022/07/01 01:51:29;;;;;;;16.77;9.50;;;;;;;26.14;74.87;99786.53;4957304;29;20102;-86
2022/07/01 01:53:58;;;;;;;18.45;9.70;;;;;;;26.14;74.93;99776.44;4957622;29;20051;-85
2022/07/01 01:56:28;;;;;;;18.95;9.93;;;;;;;26.10;75.38;99779.81;4957231;29;20071;-84
2022/07/01 01:58:58;;;;;;;17.02;9.98;;;;;;;26.02;75.99;99780.81;4957430;29;20059;-84
2022/07/01 02:01:26;;;;;;;14.02;9.63;;;;;;;26.00;76.64;99779.34;4956913;29;20071;-84
2022/07/01 02:03:55;;;;;;;15.68;9.50;;;;;;;25.97;76.88;99780.59;4957378;29;20479;-84
2022/07/01 02:06:24;;;;;;;17.75;9.93;;;;;;;26.01;76.32;99781.88;4956722;29;20047;-85
2022/07/01 02:08:52;;;;;;;16.38;10.25;;;;;;;25.97;76.88;99775.16;4957223;29;20058;-84
2022/07/01 02:11:20;;;;;;;15.07;9.20;;;;;;;25.99;77.14;99773.03;4956839;29;20126;-85
2022/07/01 02:13:50;;;;;;;16.45;9.52;;;;;;;26.06;76.93;99773.09;4956795;29;20078;-85
2022/07/01 02:16:18;;;;;;;14.13;9.25;;;;;;;26.01;76.53;99770.09;4956338;29;20047;-85
2022/07/01 02:18:46;;;;;;;17.25;9.38;;;;;;;25.97;76.72;99769.69;4956991;29;20488;-85
2022/07/01 02:21:14;;;;;;;16.08;10.27;;;;;;;25.87;76.70;99774.69;4957272;29;20070;-85
2022/07/01 02:23:43;;;;;;;20.35;11.15;;;;;;;25.93;76.48;99768.38;4957028;29;20122;-85
2022/07/01 02:26:11;;;;;;;20.95;11.50;;;;;;;25.92;76.24;99783.09;4956772;29;20050;-78
2022/07/01 02:28:39;;;;;;;22.45;10.50;;;;;;;25.76;76.77;99778.78;4956135;29;20090;-78
2022/07/01 02:31:09;;;;;;;16.02;10.30;;;;;;;25.65;77.46;99780.19;4956167;29;20102;-77
2022/07/01 02:33:37;;;;;;;19.60;10.40;;;;;;;25.60;78.09;99774.50;4955890;29;20047;-77
2022/07/01 02:36:05;;;;;;;25.25;11.50;;;;;;;25.46;79.25;99778.16;4956376;29;20069;-78
2022/07/01 02:38:34;;;;;;;19.38;11.32;;;;;;;25.35;80.40;99776.00;4955964;29;20111;-78
2022/07/01 02:41:02;;;;;;;19.42;11.73;;;;;;;25.35;80.68;99776.84;4956227;29;20444;-79
2022/07/01 02:43:30;;;;;;;22.38;12.38;;;;;;;25.48;79.13;99787.03;4956076;29;20047;-78
2022/07/01 02:45:58;;;;;;;21.05;12.90;;;;;;;25.39;79.98;99782.75;4955410;28;20047;-79
2022/07/01 02:48:28;;;;;;;16.50;11.88;;;;;;;25.29;80.24;99782.28;4955741;29;20390;-78
2022/07/01 02:50:56;;;;;;;24.40;11.70;;;;;;;25.31;79.84;99782.91;4955900;29;20078;-76
2022/07/01 02:53:25;;;;;;;15.85;10.70;;;;;;;25.28;79.53;99789.59;4955725;29;20047;-81
2022/07/01 02:55:53;;;;;;;20.13;11.20;;;;;;;25.22;79.91;99797.75;4955924;29;20507;-79
2022/07/01 02:58:21;;;;;;;15.85;10.40;;;;;;;25.21;79.81;99796.06;4938248;29;20052;-76
2022/07/01 03:00:52;;;;;;;17.75;10.65;;;;;;;25.21;80.13;99796.06;4955936;29;20051;-78
2022/07/01 03:03:20;;;;;;;17.92;9.40;;;;;;;25.26;79.32;99799.88;4955667;29;20043;-77
2022/07/01 03:05:50;;;;;;;16.52;11.18;;;;;;;25.25;79.62;99805.53;4955659;29;20051;-82
2022/07/01 03:08:18;;;;;;;20.42;10.50;;;;;;;25.34;78.66;99809.78;4955616;29;20050;-81
2022/07/01 03:10:46;;;;;;;16.95;10.60;;;;;;;25.31;79.12;99810.22;4955343;29;20449;-81
2022/07/01 03:13:14;;;;;;;19.02;11.07;;;;;;;25.27;78.92;99811.63;4955794;29;20051;-81
2022/07/01 03:15:42;;;;;;;18.45;10.60;;;;;;;25.33;79.19;99816.31;4955437;29;20054;-81
2022/07/01 03:18:12;;;;;;;15.90;11.85;;;;;;;25.51;77.55;99813.91;4955469;29;20102;-82
2022/07/01 03:20:40;;;;;;;18.55;11.55;;;;;;;25.56;77.06;99808.69;4955142;29;20047;-81
2022/07/01 03:23:10;;;;;;;19.63;11.30;;;;;;;25.52;76.77;99812.88;4955769;29;20051;-83
2022/07/01 03:25:38;;;;;;;20.63;11.13;;;;;;;25.58;76.03;99814.81;4957561;28;20133;-82
2022/07/01 03:28:06;;;;;;;18.48;11.05;;;;;;;25.74;74.96;99823.75;4974687;28;20052;-82
2022/07/01 03:30:35;;;;;;;18.70;10.93;;;;;;;25.73;75.01;99822.06;4974283;28;20078;-81
2022/07/01 03:33:03;;;;;;;25.90;10.32;;;;;;;25.74;74.57;99823.75;4959731;28;20394;-81
2022/07/01 03:35:39;;;;;;;18.45;10.10;;;;;;;25.69;74.85;99827.06;4971547;28;20125;-81
2022/07/01 03:38:08;;;;;;;24.83;10.73;;;;;;;25.82;74.51;99831.78;4974501;28;20074;-82
2022/07/01 03:40:37;;;;;;;21.55;10.43;;;;;;;26.42;71.14;99843.88;4974412;28;20142;-82
2022/07/01 03:43:06;;;;;;;17.20;10.75;;;;;;;27.07;67.71;99845.13;4974581;28;20053;-83
2022/07/01 03:45:34;;;;;;;17.58;10.63;;;;;;;27.56;64.96;99852.06;4974500;28;20499;-83
2022/07/01 03:48:03;;;;;;;26.80;12.68;;;;;;;27.82;63.42;99846.59;4970154;28;20131;-83
2022/07/01 03:50:31;;;;;;;21.88;14.65;;;;;;;28.59;60.30;99847.63;4954586;29;20122;-83
2022/07/01 03:55:46;;;;;;;22.63;11.32;;;;;;;29.60;55.80;99868.69;4955029;29;20043;-77
2022/07/01 03:58:14;;;;;;;20.90;11.48;;;;;;;29.83;54.52;99866.16;4954087;29;20070;-76
2022/07/01 04:00:43;;;;;;;16.08;11.02;;;;;;;29.81;55.18;99873.75;4954729;29;20079;-78
2022/07/01 04:03:11;;;;;;;20.13;10.10;;;;;;;30.10;53.78;99876.88;4954915;29;20043;-77
2022/07/01 04:05:40;;;;;;;17.60;10.27;;;;;;;30.47;52.67;99888.72;4972222;28;20046;-77
2022/07/01 04:08:10;;;;;;;17.92;10.52;;;;;;;30.90;51.27;99877.59;4974194;28;20043;-74
2022/07/01 04:10:41;;;;;;;20.38;10.55;;;;;;;31.19;50.76;99883.31;4974085;28;20062;-76
2022/07/01 04:13:11;;;;;;;16.83;9.35;;;;;;;31.66;49.23;99880.66;4974075;28;20485;-77
2022/07/01 04:15:59;;;;;;;14.40;9.25;;;;;;;31.79;48.70;99869.44;4974326;28;20098;-76
2022/07/01 04:18:29;;;;;;;21.33;9.45;;;;;;;31.89;48.27;99870.50;4956822;28;20055;-76
2022/07/01 04:23:51;;;;;;;20.30;9.45;;;;;;;32.51;46.89;99869.91;4928757;28;20141;-76
2022/07/01 04:26:19;;;;;;;19.15;9.75;;;;;;;32.65;46.17;99870.50;4974003;28;20054;-77
2022/07/01 04:29:07;;;;;;;18.20;10.60;;;;;;;32.87;46.26;99865.97;4974132;28;20047;-76
2022/07/01 04:31:36;;;;;;;18.80;9.90;;;;;;;33.16;44.83;99865.94;4973713;28;20138;-76
2022/07/01 04:34:05;;;;;;;17.20;10.10;;;;;;;33.16;44.96;99868.72;4974083;28;20129;-75
2022/07/01 04:36:33;;;;;;;18.63;10.07;;;;;;;33.71;43.71;99856.94;4973580;28;20042;-75
2022/07/01 04:39:02;;;;;;;18.40;10.13;;;;;;;33.56;43.89;99855.59;4974089;28;20411;-76
2022/07/01 04:44:17;;;;;;;18.40;10.32;;;;;;;33.69;43.45;99861.88;4974056;28;20039;-77
2022/07/01 04:46:46;;;;;;;21.85;10.57;;;;;;;33.89;43.06;99856.69;4973941;28;20050;-76
2022/07/01 04:49:14;;;;;;;20.13;9.90;;;;;;;34.30;42.44;99854.47;4959744;28;20051;-77
2022/07/01 04:51:43;;;;;;;16.05;10.15;;;;;;;34.54;42.12;99853.13;4954198;29;20051;-76
2022/07/01 04:54:11;;;;;;;17.90;10.07;;;;;;;34.78;41.06;99858.38;4954641;29;20050;-74
2022/07/01 04:56:39;;;;;;;17.75;9.75;;;;;;;35.26;39.99;99851.97;4954298;29;20120;-73
2022/07/01 04:59:11;;;;;;;20.73;9.82;;;;;;;35.45;39.92;99847.72;4954359;29;20118;-73
2022/07/01 05:01:42;;;;;;;17.73;10.05;;;;;;;35.89;38.39;99841.09;4954174;29;20051;-74
2022/07/01 05:04:11;;;;;;;17.63;9.25;;;;;;;36.00;38.45;99843.69;4954606;29;20039;-73
2022/07/01 05:06:39;;;;;;;20.80;10.57;;;;;;;35.63;39.47;99852.00;4937025;29;20164;-75
2022/07/01 05:09:08;;;;;;;14.60;10.13;;;;;;;35.66;39.11;99859.78;4954735;28;20051;-73
2022/07/01 05:11:36;;;;;;;14.63;10.13;;;;;;;36.07;38.66;99862.84;4957261;29;20441;-74
2022/07/01 05:14:04;;;;;;;19.35;10.63;;;;;;;35.80;38.42;99860.97;4957879;29;20484;-75
2022/07/01 05:16:32;;;;;;;17.27;9.80;;;;;;;36.20;38.43;99870.72;4957398;29;20047;-79
2022/07/01 05:21:58;;;;;;;17.55;9.30;;;;;;;36.86;36.82;99873.75;4957161;29;20127;-74
2022/07/01 05:24:31;;;;;;;21.55;9.73;;;;;;;36.62;38.04;99880.91;4957657;29;20054;-76
2022/07/01 05:27:01;;;;;;;16.48;8.85;;;;;;;36.73;37.38;99882.59;4940503;29;20452;-73
2022/07/01 05:29:30;;;;;;;19.70;9.38;;;;;;;36.79;37.64;99884.28;4955211;29;20065;-74
2022/07/01 05:31:58;;;;;;;15.75;8.88;;;;;;;36.87;37.21;99883.78;4940388;29;20043;-70
2022/07/01 05:34:27;;;;;;;17.88;9.30;;;;;;;37.04;36.91;99882.69;4952543;29;20134;-68
2022/07/01 05:36:55;;;;;;;19.50;9.52;;;;;;;37.40;35.78;99889.16;4953663;29;20485;-70
2022/07/01 05:39:25;;;;;;;16.30;9.18;;;;;;;37.46;35.92;99882.50;4937979;29;20051;-69
2022/07/01 05:41:53;;;;;;;16.20;7.95;;;;;;;37.75;35.67;99879.97;4936756;29;20062;-73
2022/07/01 05:44:21;;;;;;;17.20;9.13;;;;;;;38.37;34.27;99887.09;4920995;29;20421;-75
2022/07/01 05:46:50;;;;;;;17.02;8.88;;;;;;;38.32;34.54;99887.97;4937846;29;20048;-73
2022/07/01 05:49:18;;;;;;;13.95;8.30;;;;;;;38.60;34.32;99894.78;4937781;29;20119;-73
2022/07/01 05:51:48;;;;;;;18.67;9.18;;;;;;;38.88;33.43;99893.28;4920335;29;20055;-72
2022/07/01 05:54:16;;;;;;;18.27;8.70;;;;;;;38.51;34.09;99899.31;4937892;29;20114;-77
2022/07/01 05:56:44;;;;;;;18.73;8.93;;;;;;;38.84;33.75;99905.31;4937719;29;20051;-74
2022/07/01 05:59:14;;;;;;;17.55;8.15;;;;;;;38.82;33.52;99897.25;4937771;29;20051;-76
2022/07/01 06:01:42;;;;;;;15.75;7.40;;;;;;;39.22;33.02;99901.75;4936991;29;20636;-75
2022/07/01 06:04:10;;;;;;;13.32;7.28;;;;;;;38.94;33.38;99897.72;4943813;29;20098;-75
2022/07/01 06:06:38;;;;;;;15.57;6.93;;;;;;;38.87;32.75;99897.19;4964443;28;20070;-71
2022/07/01 06:09:08;;;;;;;12.32;6.47;;;;;;;38.91;32.99;99908.63;4963448;28;20408;-76
2022/07/01 06:11:36;;;;;;;13.73;6.63;;;;;;;39.22;32.03;99909.28;4956294;28;20046;-71
2022/07/01 06:14:04;;;;;;;13.30;6.70;;;;;;;38.78;32.69;99909.25;4976066;28;20047;-68
2022/07/01 06:16:32;;;;;;;19.33;6.35;;;;;;;38.59;32.83;99912.63;4975593;28;20046;-70
2022/07/01 06:19:00;;;;;;;15.40;6.30;;;;;;;38.71;32.82;99908.75;4975790;28;20062;-72
2022/07/01 06:21:29;;;;;;;15.35;6.32;;;;;;;39.14;32.45;99913.50;4974620;28;20054;-71
2022/07/01 06:23:57;;;;;;;13.95;6.82;;;;;;;39.31;31.84;99920.66;4923571;29;20047;-72
2022/07/01 06:26:27;;;;;;;13.90;5.88;;;;;;;39.00;32.11;99923.63;4937241;29;20047;-73
2022/07/01 06:28:55;;;;;;;12.52;5.88;;;;;;;39.29;31.14;99917.34;4936952;29;20556;-72
2022/07/01 06:31:24;;;;;;;11.45;5.90;;;;;;;39.34;31.15;99918.13;4936515;29;20146;-71
2022/07/01 06:33:52;;;;;;;12.25;6.32;;;;;;;38.81;32.28;99908.69;4936990;29;20063;-72
2022/07/01 06:36:21;;;;;;;11.55;6.22;;;;;;;39.13;31.61;99919.38;4936943;29;20067;-73
2022/07/01 06:38:49;;;;;;;11.02;6.22;;;;;;;39.41;31.17;99918.63;4936881;29;20122;-71
2022/07/01 06:41:29;;;;;;;13.15;5.85;;;;;;;39.15;31.83;99917.97;4936630;29;20043;-70
2022/07/01 06:44:00;;;;;;;14.60;5.88;;;;;;;39.46;31.29;99923.31;4919932;29;20058;-70
2022/07/01 06:46:30;;;;;;;11.52;5.85;;;;;;;39.53;31.28;99921.03;4937071;29;20065;-71
2022/07/01 06:48:59;;;;;;;13.85;6.00;;;;;;;39.39;31.63;99920.06;4919641;29;20130;-70
2022/07/01 06:51:27;;;;;;;10.55;5.90;;;;;;;39.67;30.38;99922.06;4936377;29;20039;-70
2022/07/01 06:53:56;;;;;;;13.95;5.70;;;;;;;39.78;31.13;99922.81;4919752;29;20055;-71
2022/07/01 06:56:24;;;;;;;16.42;6.00;;;;;;;39.88;30.21;99927.47;4936824;29;20071;-70
2022/07/01 06:58:52;;;;;;;9.82;5.75;;;;;;;39.36;31.19;99915.84;4937010;29;20040;-72
2022/07/01 07:01:23;;;;;;;13.02;5.28;;;;;;;39.23;30.93;99916.53;4936082;29;20047;-72
2022/07/01 07:03:51;;;;;;;10.85;5.85;;;;;;;38.68;32.14;99914.88;4936405;29;20051;-73
2022/07/01 07:06:19;;;;;;;12.05;5.50;;;;;;;37.90;33.19;99907.81;4936390;29;20126;-74
2022/07/01 07:08:47;;;;;;;13.40;5.50;;;;;;;37.14;34.40;99913.28;4919465;29;20052;-72
2022/07/01 07:11:16;;;;;;;10.40;5.10;;;;;;;37.15;34.99;99914.97;4936271;29;20580;-73
2022/07/01 07:13:44;;;;;;;16.63;5.50;;;;;;;37.00;34.92;99913.00;4919409;29;20050;-74
2022/07/01 07:16:12;;;;;;;10.55;5.68;;;;;;;36.99;35.54;99910.50;4936265;29;20043;-75
2022/07/01 07:18:42;;;;;;;12.32;5.18;;;;;;;36.47;35.80;99914.16;4936235;29;20071;-73
2022/07/01 07:21:10;;;;;;;17.77;5.57;;;;;;;36.16;37.34;99915.91;4936117;29;20481;-74
2022/07/01 07:23:38;;;;;;;13.88;5.00;;;;;;;36.27;36.40;99909.31;4936252;29;20103;-73
2022/07/01 07:26:06;;;;;;;9.77;5.22;;;;;;;36.11;36.70;99912.03;4936100;29;20141;-73
2022/07/01 07:28:34;;;;;;;14.20;5.30;;;;;;;36.23;36.36;99906.25;4919050;29;20055;-73
2022/07/01 07:31:02;;;;;;;15.10;5.35;;;;;;;36.30;36.15;99900.47;4935604;29;20564;-74
2022/07/01 07:33:31;;;;;;;12.30;5.55;;;;;;;36.15;36.31;99906.75;4935808;29;20044;-73
2022/07/01 07:36:00;;;;;;;13.65;5.20;;;;;;;35.99;36.64;99902.22;4936038;29;20051;-73
2022/07/01 07:38:28;;;;;;;10.93;5.30;;;;;;;35.96;37.29;99905.53;4935986;29;20053;-73
2022/07/01 07:40:57;;;;;;;12.35;4.88;;;;;;;35.96;36.69;99908.31;4935768;29;20130;-74
2022/07/01 07:43:25;;;;;;;10.88;4.93;;;;;;;35.56;37.68;99909.63;4935835;29;20039;-74
2022/07/01 07:45:53;;;;;;;10.07;5.05;;;;;;;35.62;37.32;99903.03;4935697;29;20134;-76
2022/07/01 07:48:21;;;;;;;15.93;5.53;;;;;;;35.69;38.00;99903.63;4936053;29;20136;-72
2022/07/01 07:50:50;;;;;;;10.63;5.78;;;;;;;35.58;38.06;99907.44;4935404;29;20048;-71
2022/07/01 07:53:20;;;;;;;11.20;5.07;;;;;;;35.60;37.84;99910.78;4936021;29;20119;-73
2022/07/01 07:55:48;;;;;;;12.20;5.25;;;;;;;35.50;37.07;99911.53;4935777;29;20040;-74
2022/07/01 07:58:17;;;;;;;14.90;5.10;;;;;;;35.53;36.93;99915.72;4935557;29;20056;-73
2022/07/01 08:00:45;;;;;;;9.98;4.88;;;;;;;35.54;37.11;99911.84;4935502;29;20098;-72
2022/07/01 08:03:13;;;;;;;15.43;5.55;;;;;;;35.51;37.48;99912.34;4935562;29;20044;-72
2022/07/01 08:05:41;;;;;;;13.90;5.07;;;;;;;35.54;37.34;99912.69;4935825;29;20099;-74
2022/07/01 08:08:10;;;;;;;14.93;5.15;;;;;;;35.31;37.64;99912.97;4935657;29;20131;-74
2022/07/01 08:10:39;;;;;;;11.38;5.40;;;;;;;35.18;37.85;99914.25;4935503;29;20055;-79
2022/07/01 08:13:07;;;;;;;11.52;5.30;;;;;;;35.23;36.96;99925.41;4935376;29;20048;-74
2022/07/01 08:15:35;;;;;;;12.32;5.45;;;;;;;35.20;37.40;99922.31;4918759;29;20103;-73
2022/07/01 08:18:04;;;;;;;10.65;5.05;;;;;;;35.06;37.56;99916.34;4935648;29;20048;-75
2022/07/01 08:20:32;;;;;;;12.38;5.18;;;;;;;35.13;37.78;99921.66;4935424;29;20497;-70
2022/07/01 08:23:00;;;;;;;13.10;5.07;;;;;;;35.14;37.39;99918.66;4935310;29;20051;-71
2022/07/01 08:25:28;;;;;;;14.05;5.70;;;;;;;35.22;37.53;99914.56;4935444;29;20075;-71
2022/07/01 08:28:04;;;;;;;11.32;5.63;;;;;;;35.33;37.50;99915.53;4935486;29;20055;-74
2022/07/01 08:30:33;;;;;;;11.18;5.07;;;;;;;35.38;36.94;99913.66;4935460;29;20055;-73
2022/07/01 08:33:01;;;;;;;12.85;5.40;;;;;;;35.40;36.55;99921.69;4934956;29;20051;-72
2022/07/01 08:35:30;;;;;;;13.05;5.60;;;;;;;35.42;37.67;99911.16;4935371;29;20058;-73
2022/07/01 08:37:58;;;;;;;11.68;5.95;;;;;;;35.46;36.58;99915.09;4935195;29;20478;-73
2022/07/01 08:40:27;;;;;;;10.35;5.72;;;;;;;35.40;36.10;99910.59;4918307;29;20075;-74
2022/07/01 08:42:59;;;;;;;11.77;4.93;;;;;;;35.42;35.98;99919.47;4918287;29;20059;-74
2022/07/01 08:45:31;;;;;;;9.93;5.05;;;;;;;35.34;36.01;99920.78;4920928;29;20048;-75
2022/07/01 08:48:01;;;;;;;13.13;5.50;;;;;;;35.29;36.65;99920.72;4939041;29;20067;-75
2022/07/01 08:50:31;;;;;;;12.48;4.80;;;;;;;35.35;36.54;99925.25;4938798;29;20501;-76
2022/07/01 08:52:59;;;;;;;12.40;5.25;;;;;;;35.18;36.21;99922.56;4938471;29;20059;-74
2022/07/01 08:55:27;;;;;;;15.45;5.10;;;;;;;35.48;36.10;99924.00;4938930;29;20071;-74
2022/07/01 08:57:56;;;;;;;15.13;5.18;;;;;;;35.20;36.47;99917.59;4921792;29;20058;-74
2022/07/01 09:00:33;;;;;;;13.45;5.05;;;;;;;35.30;36.13;99927.94;4938627;29;20052;-71
2022/07/01 09:03:04;;;;;;;14.50;5.03;;;;;;;35.27;36.21;99923.78;4938343;29;20146;-73
2022/07/01 09:05:33;;;;;;;11.35;5.18;;;;;;;35.42;36.26;99914.81;4921662;29;20051;-73
2022/07/01 09:08:03;;;;;;;13.27;5.28;;;;;;;35.43;36.63;99912.88;4938551;29;20071;-75
2022/07/01 09:10:34;;;;;;;11.43;4.50;;;;;;;35.29;34.83;99924.34;4921291;29;20044;-75
2022/07/01 09:13:07;;;;;;;12.10;4.78;;;;;;;34.71;36.10;99903.72;4938754;29;20044;-77
2022/07/01 09:15:38;;;;;;;10.43;4.15;;;;;;;34.49;36.81;99900.16;4938560;29;20048;-74
2022/07/01 09:18:11;;;;;;;10.52;4.65;;;;;;;34.48;36.93;99909.56;4938502;29;20058;-74
2022/07/01 09:20:42;;;;;;;12.57;4.75;;;;;;;35.01;35.81;99905.19;4938425;29;20378;-75
2022/07/01 09:23:12;;;;;;;12.20;5.07;;;;;;;35.29;35.32;99904.94;4938394;29;20429;-76
2022/07/01 09:25:43;;;;;;;9.98;4.32;;;;;;;35.34;35.71;99903.31;4938696;29;20051;-76
2022/07/01 09:28:22;;;;;;;15.02;4.72;;;;;;;35.28;35.12;99910.75;4938041;29;20059;-78
2022/07/01 09:30:54;;;;;;;12.32;5.18;;;;;;;35.51;35.44;99902.09;4920769;29;20058;-77
2022/07/01 09:33:24;;;;;;;9.45;4.80;;;;;;;35.32;35.83;99909.09;4936885;29;20055;-75
2022/07/01 09:35:53;;;;;;;13.77;4.82;;;;;;;35.37;36.40;99914.72;4957461;29;20099;-77
2022/07/01 09:38:23;;;;;;;12.73;5.15;;;;;;;35.37;35.94;99902.78;4957118;29;20404;-78
2022/07/01 09:41:03;;;;;;;12.20;5.03;;;;;;;35.49;35.90;99900.69;4957208;29;20047;-76
2022/07/01 09:43:34;;;;;;;12.32;5.03;;;;;;;35.78;36.00;99904.81;4957255;29;20043;-75
2022/07/01 09:46:06;;;;;;;12.55;4.78;;;;;;;35.80;34.80;99908.16;4939778;29;20051;-71
2022/07/01 09:48:46;;;;;;;10.50;4.35;;;;;;;35.94;33.56;99893.88;4939637;29;20146;-74
2022/07/01 09:51:16;;;;;;;10.73;4.15;;;;;;;35.65;34.00;99894.19;4957065;29;20475;-75
2022/07/01 09:53:45;;;;;;;11.55;5.00;;;;;;;35.63;34.32;99898.34;4957093;29;20051;-73
2022/07/01 09:56:13;;;;;;;11.05;4.50;;;;;;;35.57;34.72;99894.66;4939837;29;20048;-71
2022/07/01 09:58:43;;;;;;;10.00;5.07;;;;;;;35.63;35.04;99896.41;4956940;29;20408;-73
2022/07/01 10:01:15;;;;;;;12.50;5.13;;;;;;;35.65;34.67;99876.72;4956285;29;20053;-73
2022/07/01 10:03:44;;;;;;;10.88;4.50;;;;;;;36.03;34.25;99881.16;4956953;29;20052;-71
2022/07/01 10:06:31;;;;;;;11.48;4.60;;;;;;;36.01;33.30;99883.38;4957009;29;20438;-72
2022/07/01 10:09:12;;;;;;;10.52;4.50;;;;;;;36.04;32.51;99886.44;4939539;29;20079;-69
2022/07/01 10:12:12;;;;;;;10.82;4.43;;;;;;;36.11;32.31;99877.88;4956512;29;20087;-67
2022/07/01 10:14:43;;;;;;;15.23;4.78;;;;;;;36.18;32.60;99878.44;4955015;29;20043;-69
2022/07/01 10:17:27;;;;;;;10.65;4.80;;;;;;;36.28;32.32;99872.94;4956262;29;20054;-70
2022/07/01 10:19:56;;;;;;;13.35;4.65;;;;;;;36.09;32.44;99868.97;4956073;29;20059;-69
2022/07/01 10:22:26;;;;;;;10.13;4.60;;;;;;;36.15;32.38;99870.66;4956221;29;20047;-72
2022/07/01 10:24:54;;;;;;;10.85;4.25;;;;;;;36.30;31.34;99870.75;4956436;29;20047;-70
2022/07/01 10:27:24;;;;;;;14.98;4.68;;;;;;;36.29;31.85;99873.78;4956213;29;20555;-69
2022/07/01 10:30:14;;;;;;;12.13;4.25;;;;;;;36.54;31.69;99868.38;4956288;29;20110;-69
2022/07/01 10:32:52;;;;;;;12.15;4.80;;;;;;;36.36;31.96;99863.28;4955506;29;20568;-67
2022/07/01 10:35:38;;;;;;;10.32;4.40;;;;;;;36.53;31.60;99872.25;4938924;29;20055;-68
2022/07/01 10:38:12;;;;;;;11.50;4.47;;;;;;;36.35;31.83;99854.13;4939059;29;20055;-67
2022/07/01 10:40:46;;;;;;;10.65;4.50;;;;;;;36.38;31.75;99861.91;4956121;29;20067;-68
2022/07/01 10:43:17;;;;;;;8.57;4.00;;;;;;;36.35;31.90;99856.91;4956319;29;20039;-68
2022/07/01 10:45:52;;;;;;;9.10;3.97;;;;;;;36.49;31.05;99857.25;4956156;29;20054;-69
2022/07/01 10:48:23;;;;;;;11.88;4.13;;;;;;;36.50;31.30;99869.19;4956188;29;20444;-68
2022/07/01 10:50:53;;;;;;;10.35;4.00;;;;;;;36.49;31.55;99861.97;4955749;29;20378;-71
2022/07/01 10:53:21;;;;;;;13.35;4.60;;;;;;;36.55;31.35;99856.16;4938450;29;20548;-69
2022/07/01 10:55:51;;;;;;;13.48;4.10;;;;;;;36.31;31.36;99858.53;4955804;29;20058;-68
2022/07/01 10:58:37;;;;;;;11.60;4.40;;;;;;;36.37;31.26;99857.47;4955851;29;20103;-70
2022/07/01 11:01:05;;;;;;;11.02;4.00;;;;;;;36.62;30.54;99855.91;4955539;29;20039;-68
2022/07/01 11:03:39;;;;;;;9.98;3.88;;;;;;;36.64;30.13;99848.13;4955610;29;20062;-71
2022/07/01 11:06:09;;;;;;;13.40;4.00;;;;;;;36.73;29.36;99852.03;4955613;29;20540;-68
2022/07/01 11:08:37;;;;;;;7.30;3.22;;;;;;;36.73;29.77;99852.03;4937947;29;20043;-70
2022/07/01 11:11:05;;;;;;;10.82;4.07;;;;;;;36.72;29.14;99850.38;4955468;29;20043;-68
2022/07/01 11:13:36;;;;;;;7.22;3.95;;;;;;;37.06;28.80;99844.34;4938248;29;20051;-69
2022/07/01 11:16:05;;;;;;;9.38;4.03;;;;;;;37.21;28.83;99845.19;4938375;29;20054;-70
2022/07/01 11:18:33;;;;;;;9.63;3.80;;;;;;;37.12;29.29;99838.50;4955090;29;20131;-69
2022/07/01 11:21:07;;;;;;;11.02;4.10;;;;;;;37.16;29.55;99845.19;4954862;29;20043;-69
2022/07/01 11:23:36;;;;;;;9.85;4.43;;;;;;;37.32;28.83;99843.28;4955455;29;20043;-69
2022/07/01 11:26:19;;;;;;;10.13;4.35;;;;;;;37.06;29.36;99830.44;4955360;29;20079;-69
2022/07/01 11:28:48;;;;;;;13.43;4.22;;;;;;;37.30;29.10;99837.16;4934656;29;20063;-69
2022/07/01 11:31:16;;;;;;;12.30;4.47;;;;;;;37.39;28.35;99835.50;4935729;29;20485;-71
2022/07/01 11:33:50;;;;;;;8.27;3.90;;;;;;;37.35;28.66;99826.06;4936057;29;20094;-69
2022/07/01 11:39:23;;;;;;;10.57;3.90;;;;;;;37.39;28.22;99816.03;4936007;29;20043;-69
2022/07/01 11:41:56;;;;;;;11.00;4.20;;;;;;;37.19;27.71;99821.56;4935710;29;20059;-69
2022/07/01 11:44:34;;;;;;;9.27;4.28;;;;;;;37.37;27.76;99803.53;4936186;29;20047;-69
2022/07/01 11:47:05;;;;;;;10.50;4.43;;;;;;;37.45;27.75;99811.31;4936085;29;20048;-68
2022/07/01 11:49:33;;;;;;;9.73;4.65;;;;;;;37.53;28.06;99805.97;4934364;29;20048;-74
2022/07/01 11:52:05;;;;;;;11.43;4.00;;;;;;;37.25;27.85;99803.75;4934494;29;20090;-67